sensor_id;sensor_type;location;lat;lon;timestamp;temperature;humidity
22676;DHT22;12521;43.310;21.876;2023-05-17T00:02:47;17.2;96.0
22676;DHT22;12521;43.310;21.876;2023-05-17T00:07:24;17.2;96.0
22676;DHT22;12521;43.310;21.876;2023-05-17T00:12:00;17.2;96.0
22676;DHT22;12521;43.310;21.876;2023-05-17T00:16:37;17.2;96.0
22676;DHT22;12521;43.310;21.876;2023-05-17T00:21:14;17.0;96.0
22676;DHT22;12521;43.310;21.876;2023-05-17T00:25:50;17.0;96.0
22676;DHT22;12521;43.310;21.876;2023-05-17T00:30:27;16.9;96.0
22676;DHT22;12521;43.310;21.876;2023-05-17T00:35:05;16.9;96.0
22676;DHT22;12521;43.310;21.876;2023-05-17T00:39:42;16.9;96.0
22676;DHT22;12521;43.310;21.876;2023-05-17T00:44:19;16.8;96.0
22676;DHT22;12521;43.310;21.876;2023-05-17T00:48:55;16.8;96.0
22676;DHT22;12521;43.310;21.876;2023-05-17T00:53:32;16.8;96.0
22676;DHT22;12521;43.310;21.876;2023-05-17T00:58:12;16.8;96.0
22676;DHT22;12521;43.310;21.876;2023-05-17T01:02:52;16.8;96.0
22676;DHT22;12521;43.310;21.876;2023-05-17T01:07:29;16.8;96.0
22676;DHT22;12521;43.310;21.876;2023-05-17T01:12:23;16.9;96.0
22676;DHT22;12521;43.310;21.876;2023-05-17T01:17:54;16.9;96.0
22676;DHT22;12521;43.310;21.876;2023-05-17T01:23:35;16.8;96.0
22676;DHT22;12521;43.310;21.876;2023-05-17T01:28:52;16.8;96.0
22676;DHT22;12521;43.310;21.876;2023-05-17T01:33:37;16.8;96.0
22676;DHT22;12521;43.310;21.876;2023-05-17T01:38:15;16.8;96.0
22676;DHT22;12521;43.310;21.876;2023-05-17T01:43:04;16.8;96.0
22676;DHT22;12521;43.310;21.876;2023-05-17T01:48:19;16.8;96.0
22676;DHT22;12521;43.310;21.876;2023-05-17T01:53:22;16.7;96.0
22676;DHT22;12521;43.310;21.876;2023-05-17T01:58:15;16.7;96.0
22676;DHT22;12521;43.310;21.876;2023-05-17T02:03:01;16.5;96.0
22676;DHT22;12521;43.310;21.876;2023-05-17T02:07:38;16.5;96.0
22676;DHT22;12521;43.310;21.876;2023-05-17T02:12:14;16.4;96.0
22676;DHT22;12521;43.310;21.876;2023-05-17T02:16:52;16.4;96.0
22676;DHT22;12521;43.310;21.876;2023-05-17T02:21:28;16.4;96.0
22676;DHT22;12521;43.310;21.876;2023-05-17T02:26:05;16.4;96.0
22676;DHT22;12521;43.310;21.876;2023-05-17T02:30:42;16.3;96.0
22676;DHT22;12521;43.310;21.876;2023-05-17T02:35:19;16.3;96.0
22676;DHT22;12521;43.310;21.876;2023-05-17T02:39:57;16.3;96.0
22676;DHT22;12521;43.310;21.876;2023-05-17T02:44:33;16.2;96.0
22676;DHT22;12521;43.310;21.876;2023-05-17T02:49:10;16.2;96.0
22676;DHT22;12521;43.310;21.876;2023-05-17T02:53:47;16.0;96.0
22676;DHT22;12521;43.310;21.876;2023-05-17T02:58:24;16.0;96.0
22676;DHT22;12521;43.310;21.876;2023-05-17T03:03:01;16.0;96.0
22676;DHT22;12521;43.310;21.876;2023-05-17T03:07:38;16.0;96.0
22676;DHT22;12521;43.310;21.876;2023-05-17T03:12:14;15.9;96.0
22676;DHT22;12521;43.310;21.876;2023-05-17T03:16:51;15.9;96.0
22676;DHT22;12521;43.310;21.876;2023-05-17T03:21:27;15.8;96.0
22676;DHT22;12521;43.310;21.876;2023-05-17T03:26:04;15.8;96.0
22676;DHT22;12521;43.310;21.876;2023-05-17T03:30:41;15.8;96.0
22676;DHT22;12521;43.310;21.876;2023-05-17T03:35:18;15.8;96.0
22676;DHT22;12521;43.310;21.876;2023-05-17T03:39:55;15.8;96.0
22676;DHT22;12521;43.310;21.876;2023-05-17T03:44:32;15.8;96.0
22676;DHT22;12521;43.310;21.876;2023-05-17T03:49:10;15.8;96.0
22676;DHT22;12521;43.310;21.876;2023-05-17T03:53:49;15.8;96.0
22676;DHT22;12521;43.310;21.876;2023-05-17T03:58:35;15.8;96.0
22676;DHT22;12521;43.310;21.876;2023-05-17T04:03:13;15.8;96.0
22676;DHT22;12521;43.310;21.876;2023-05-17T04:07:49;15.8;96.0
22676;DHT22;12521;43.310;21.876;2023-05-17T04:12:26;15.7;96.0
22676;DHT22;12521;43.310;21.876;2023-05-17T04:17:03;15.7;96.0
22676;DHT22;12521;43.310;21.876;2023-05-17T04:21:40;15.6;96.0
22676;DHT22;12521;43.310;21.876;2023-05-17T04:26:17;15.6;96.0
22676;DHT22;12521;43.310;21.876;2023-05-17T04:30:55;15.6;96.0
22676;DHT22;12521;43.310;21.876;2023-05-17T04:35:32;15.6;96.0
22676;DHT22;12521;43.310;21.876;2023-05-17T04:40:10;15.6;96.0
22676;DHT22;12521;43.310;21.876;2023-05-17T04:44:48;15.6;96.0
22676;DHT22;12521;43.310;21.876;2023-05-17T04:49:25;15.6;96.0
22676;DHT22;12521;43.310;21.876;2023-05-17T04:54:02;15.7;96.0
22676;DHT22;12521;43.310;21.876;2023-05-17T04:58:40;15.7;96.0
22676;DHT22;12521;43.310;21.876;2023-05-17T05:03:17;15.8;96.0
22676;DHT22;12521;43.310;21.876;2023-05-17T05:07:54;15.8;96.0
22676;DHT22;12521;43.310;21.876;2023-05-17T05:12:32;16.0;96.0
22676;DHT22;12521;43.310;21.876;2023-05-17T05:17:08;16.0;96.0
22676;DHT22;12521;43.310;21.876;2023-05-17T05:21:45;16.3;96.0
22676;DHT22;12521;43.310;21.876;2023-05-17T05:26:22;16.3;96.0
22676;DHT22;12521;43.310;21.876;2023-05-17T05:31:00;16.6;96.0
22676;DHT22;12521;43.310;21.876;2023-05-17T05:35:36;16.6;96.0
22676;DHT22;12521;43.310;21.876;2023-05-17T05:40:13;16.6;96.0
22676;DHT22;12521;43.310;21.876;2023-05-17T05:44:50;17.0;96.0
22676;DHT22;12521;43.310;21.876;2023-05-17T05:49:26;17.0;96.0
22676;DHT22;12521;43.310;21.876;2023-05-17T05:54:03;17.4;96.0
22676;DHT22;12521;43.310;21.876;2023-05-17T05:58:39;17.4;96.0
22676;DHT22;12521;43.310;21.876;2023-05-17T06:03:16;17.8;96.0
22676;DHT22;12521;43.310;21.876;2023-05-17T06:07:53;17.8;96.0
22676;DHT22;12521;43.310;21.876;2023-05-17T06:12:29;18.1;96.0
22676;DHT22;12521;43.310;21.876;2023-05-17T06:17:06;18.1;96.0
22676;DHT22;12521;43.310;21.876;2023-05-17T06:21:43;18.2;96.0
22676;DHT22;12521;43.310;21.876;2023-05-17T06:26:19;18.2;96.0
22676;DHT22;12521;43.310;21.876;2023-05-17T06:30:56;18.4;96.0
22676;DHT22;12521;43.310;21.876;2023-05-17T06:35:34;18.4;96.0
22676;DHT22;12521;43.310;21.876;2023-05-17T06:40:11;18.4;96.0
22676;DHT22;12521;43.310;21.876;2023-05-17T06:44:49;18.6;96.0
22676;DHT22;12521;43.310;21.876;2023-05-17T06:49:25;18.6;96.0
22676;DHT22;12521;43.310;21.876;2023-05-17T06:54:02;18.9;96.0
22676;DHT22;12521;43.310;21.876;2023-05-17T06:58:39;18.9;96.0
22676;DHT22;12521;43.310;21.876;2023-05-17T07:03:16;19.0;96.0
22676;DHT22;12521;43.310;21.876;2023-05-17T07:07:52;19.0;96.0
22676;DHT22;12521;43.310;21.876;2023-05-17T07:12:28;19.1;96.0
22676;DHT22;12521;43.310;21.876;2023-05-17T07:17:05;19.1;96.0
22676;DHT22;12521;43.310;21.876;2023-05-17T07:21:41;19.3;96.0
22676;DHT22;12521;43.310;21.876;2023-05-17T07:26:18;19.3;96.0
22676;DHT22;12521;43.310;21.876;2023-05-17T07:30:56;19.5;96.0
22676;DHT22;12521;43.310;21.876;2023-05-17T07:35:32;19.5;96.0
22676;DHT22;12521;43.310;21.876;2023-05-17T07:40:11;19.5;96.0
22676;DHT22;12521;43.310;21.876;2023-05-17T07:44:49;19.8;96.0
22676;DHT22;12521;43.310;21.876;2023-05-17T07:49:26;19.8;96.0
22676;DHT22;12521;43.310;21.876;2023-05-17T07:54:05;20.1;96.0
22676;DHT22;12521;43.310;21.876;2023-05-17T07:58:42;20.1;96.0
22676;DHT22;12521;43.310;21.876;2023-05-17T08:03:19;20.4;96.0
22676;DHT22;12521;43.310;21.876;2023-05-17T08:07:55;20.4;96.0
22676;DHT22;12521;43.310;21.876;2023-05-17T08:12:32;20.7;96.0
22676;DHT22;12521;43.310;21.876;2023-05-17T08:17:09;20.7;96.0
22676;DHT22;12521;43.310;21.876;2023-05-17T08:21:45;20.9;96.0
22676;DHT22;12521;43.310;21.876;2023-05-17T08:26:22;20.9;96.0
22676;DHT22;12521;43.310;21.876;2023-05-17T08:30:58;21.1;96.0
22676;DHT22;12521;43.310;21.876;2023-05-17T08:35:35;21.1;96.0
22676;DHT22;12521;43.310;21.876;2023-05-17T08:40:12;21.1;96.0
22676;DHT22;12521;43.310;21.876;2023-05-17T08:44:50;21.1;96.0
22676;DHT22;12521;43.310;21.876;2023-05-17T08:49:30;21.1;96.0
22676;DHT22;12521;43.310;21.876;2023-05-17T08:54:10;21.1;96.0
22676;DHT22;12521;43.310;21.876;2023-05-17T08:58:52;21.1;96.0
22676;DHT22;12521;43.310;21.876;2023-05-17T09:03:35;21.1;96.0
22676;DHT22;12521;43.310;21.876;2023-05-17T09:08:23;21.1;96.0
22676;DHT22;12521;43.310;21.876;2023-05-17T09:13:01;21.1;96.0
22676;DHT22;12521;43.310;21.876;2023-05-17T09:17:40;21.1;96.0
22676;DHT22;12521;43.310;21.876;2023-05-17T09:22:25;21.0;96.0
22676;DHT22;12521;43.310;21.876;2023-05-17T09:27:03;21.0;96.0
22676;DHT22;12521;43.310;21.876;2023-05-17T09:31:42;20.9;96.0
22676;DHT22;12521;43.310;21.876;2023-05-17T09:36:22;20.9;96.0
22676;DHT22;12521;43.310;21.876;2023-05-17T09:41:00;20.8;96.0
22676;DHT22;12521;43.310;21.876;2023-05-17T09:45:37;20.8;96.0
22676;DHT22;12521;43.310;21.876;2023-05-17T09:50:19;20.8;96.0
22676;DHT22;12521;43.310;21.876;2023-05-17T09:54:59;20.7;96.0
22676;DHT22;12521;43.310;21.876;2023-05-17T09:59:37;20.7;96.0
22676;DHT22;12521;43.310;21.876;2023-05-17T10:04:19;20.0;96.0
22676;DHT22;12521;43.310;21.876;2023-05-17T10:09:11;20.0;96.0
22676;DHT22;12521;43.310;21.876;2023-05-17T10:14:01;19.3;96.0
22676;DHT22;12521;43.310;21.876;2023-05-17T10:19:04;19.3;96.0
22676;DHT22;12521;43.310;21.876;2023-05-17T10:23:46;18.8;96.0
22676;DHT22;12521;43.310;21.876;2023-05-17T10:28:26;18.8;96.0
22676;DHT22;12521;43.310;21.876;2023-05-17T10:33:10;18.3;96.0
22676;DHT22;12521;43.310;21.876;2023-05-17T10:37:51;18.3;96.0
22676;DHT22;12521;43.310;21.876;2023-05-17T10:42:31;19.1;96.0
22676;DHT22;12521;43.310;21.876;2023-05-17T10:47:13;19.1;96.0
22676;DHT22;12521;43.310;21.876;2023-05-17T10:51:51;19.9;96.0
22676;DHT22;12521;43.310;21.876;2023-05-17T10:56:29;19.9;96.0
22676;DHT22;12521;43.310;21.876;2023-05-17T11:01:09;20.7;96.0
22676;DHT22;12521;43.310;21.876;2023-05-17T11:06:16;20.7;96.0
22676;DHT22;12521;43.310;21.876;2023-05-17T11:11:15;21.5;96.0
22676;DHT22;12521;43.310;21.876;2023-05-17T11:16:03;21.5;96.0
22676;DHT22;12521;43.310;21.876;2023-05-17T11:20:42;21.5;96.0
22676;DHT22;12521;43.310;21.876;2023-05-17T11:25:20;22.0;96.0
22676;DHT22;12521;43.310;21.876;2023-05-17T11:29:57;22.0;96.0
22676;DHT22;12521;43.310;21.876;2023-05-17T11:34:52;22.4;96.0
22676;DHT22;12521;43.310;21.876;2023-05-17T11:39:30;22.4;96.0
22676;DHT22;12521;43.310;21.876;2023-05-17T11:44:07;22.5;96.0
22676;DHT22;12521;43.310;21.876;2023-05-17T11:48:46;22.5;96.0
22676;DHT22;12521;43.310;21.876;2023-05-17T11:53:30;22.7;96.0
22676;DHT22;12521;43.310;21.876;2023-05-17T11:58:10;22.7;96.0
22676;DHT22;12521;43.310;21.876;2023-05-17T12:02:54;22.4;96.0
22676;DHT22;12521;43.310;21.876;2023-05-17T12:07:33;22.4;96.0
22676;DHT22;12521;43.310;21.876;2023-05-17T12:12:10;22.1;96.0
22676;DHT22;12521;43.310;21.876;2023-05-17T12:16:52;22.1;96.0
22676;DHT22;12521;43.310;21.876;2023-05-17T12:21:40;21.8;96.0
22676;DHT22;12521;43.310;21.876;2023-05-17T12:26:18;21.8;96.0
22676;DHT22;12521;43.310;21.876;2023-05-17T12:30:59;21.5;96.0
22676;DHT22;12521;43.310;21.876;2023-05-17T12:35:40;21.5;96.0
22676;DHT22;12521;43.310;21.876;2023-05-17T12:40:18;21.5;96.0
22676;DHT22;12521;43.310;21.876;2023-05-17T12:44:55;21.4;96.0
22676;DHT22;12521;43.310;21.876;2023-05-17T12:49:38;21.4;96.0
22676;DHT22;12521;43.310;21.876;2023-05-17T12:54:29;21.2;96.0
22676;DHT22;12521;43.310;21.876;2023-05-17T12:59:12;21.2;96.0
22676;DHT22;12521;43.310;21.876;2023-05-17T13:03:54;21.3;96.0
22676;DHT22;12521;43.310;21.876;2023-05-17T13:08:32;21.3;96.0
22676;DHT22;12521;43.310;21.876;2023-05-17T13:13:19;21.4;96.0
22676;DHT22;12521;43.310;21.876;2023-05-17T13:17:57;21.4;96.0
22676;DHT22;12521;43.310;21.876;2023-05-17T13:22:48;20.5;96.0
22676;DHT22;12521;43.310;21.876;2023-05-17T13:27:26;20.5;96.0
22676;DHT22;12521;43.310;21.876;2023-05-17T13:32:05;19.7;96.0
22676;DHT22;12521;43.310;21.876;2023-05-17T13:36:48;19.7;96.0
22676;DHT22;12521;43.310;21.876;2023-05-17T13:41:24;19.2;96.0
22676;DHT22;12521;43.310;21.876;2023-05-17T13:46:01;19.2;96.0
22676;DHT22;12521;43.310;21.876;2023-05-17T13:50:38;19.2;96.0
22676;DHT22;12521;43.310;21.876;2023-05-17T13:55:14;18.8;96.0
22676;DHT22;12521;43.310;21.876;2023-05-17T13:59:51;18.8;96.0
22676;DHT22;12521;43.310;21.876;2023-05-17T14:04:27;18.7;96.0
22676;DHT22;12521;43.310;21.876;2023-05-17T14:09:04;18.7;96.0
22676;DHT22;12521;43.310;21.876;2023-05-17T14:13:41;18.6;96.0
22676;DHT22;12521;43.310;21.876;2023-05-17T14:18:17;18.6;96.0
22676;DHT22;12521;43.310;21.876;2023-05-17T14:22:55;18.5;96.0
22676;DHT22;12521;43.310;21.876;2023-05-17T14:27:32;18.5;96.0
22676;DHT22;12521;43.310;21.876;2023-05-17T14:32:10;18.3;96.0
22676;DHT22;12521;43.310;21.876;2023-05-17T14:36:46;18.3;96.0
22676;DHT22;12521;43.310;21.876;2023-05-17T14:41:23;18.1;96.0
22676;DHT22;12521;43.310;21.876;2023-05-17T14:46:00;18.1;96.0
22676;DHT22;12521;43.310;21.876;2023-05-17T14:50:38;18.1;96.0
22676;DHT22;12521;43.310;21.876;2023-05-17T14:55:15;17.9;96.0
22676;DHT22;12521;43.310;21.876;2023-05-17T14:59:53;17.9;96.0
22676;DHT22;12521;43.310;21.876;2023-05-17T15:04:30;17.9;96.0
22676;DHT22;12521;43.310;21.876;2023-05-17T15:09:06;17.9;96.0
22676;DHT22;12521;43.310;21.876;2023-05-17T15:13:42;17.9;96.0
22676;DHT22;12521;43.310;21.876;2023-05-17T15:18:19;17.9;96.0
22676;DHT22;12521;43.310;21.876;2023-05-17T15:22:56;17.8;96.0
22676;DHT22;12521;43.310;21.876;2023-05-17T15:27:32;17.8;96.0
22676;DHT22;12521;43.310;21.876;2023-05-17T15:32:09;17.8;96.0
22676;DHT22;12521;43.310;21.876;2023-05-17T15:36:46;17.8;96.0
22676;DHT22;12521;43.310;21.876;2023-05-17T15:41:22;17.8;96.0
22676;DHT22;12521;43.310;21.876;2023-05-17T15:46:00;17.8;96.0
22676;DHT22;12521;43.310;21.876;2023-05-17T15:50:37;17.8;96.0
22676;DHT22;12521;43.310;21.876;2023-05-17T15:55:14;17.7;96.0
22676;DHT22;12521;43.310;21.876;2023-05-17T15:59:51;17.7;96.0
22676;DHT22;12521;43.310;21.876;2023-05-17T16:04:28;17.7;96.0
22676;DHT22;12521;43.310;21.876;2023-05-17T16:09:04;17.7;96.0
22676;DHT22;12521;43.310;21.876;2023-05-17T16:13:41;17.7;96.0
22676;DHT22;12521;43.310;21.876;2023-05-17T16:18:18;17.7;96.0
22676;DHT22;12521;43.310;21.876;2023-05-17T16:22:54;17.5;96.0
22676;DHT22;12521;43.310;21.876;2023-05-17T16:27:31;17.5;96.0
22676;DHT22;12521;43.310;21.876;2023-05-17T16:32:07;17.4;96.0
22676;DHT22;12521;43.310;21.876;2023-05-17T16:36:43;17.4;96.0
22676;DHT22;12521;43.310;21.876;2023-05-17T16:41:20;17.3;96.0
22676;DHT22;12521;43.310;21.876;2023-05-17T16:45:56;17.3;96.0
22676;DHT22;12521;43.310;21.876;2023-05-17T16:50:33;17.3;96.0
22676;DHT22;12521;43.310;21.876;2023-05-17T16:55:09;17.2;96.0
22676;DHT22;12521;43.310;21.876;2023-05-17T16:59:46;17.2;96.0
22676;DHT22;12521;43.310;21.876;2023-05-17T17:04:23;17.2;96.0
22676;DHT22;12521;43.310;21.876;2023-05-17T17:09:00;17.2;96.0
22676;DHT22;12521;43.310;21.876;2023-05-17T17:13:37;17.1;96.0
22676;DHT22;12521;43.310;21.876;2023-05-17T17:18:14;17.1;96.0
22676;DHT22;12521;43.310;21.876;2023-05-17T17:22:50;17.0;96.0
22676;DHT22;12521;43.310;21.876;2023-05-17T17:27:27;17.0;96.0
22676;DHT22;12521;43.310;21.876;2023-05-17T17:32:06;17.0;96.0
22676;DHT22;12521;43.310;21.876;2023-05-17T17:36:43;17.0;96.0
22676;DHT22;12521;43.310;21.876;2023-05-17T17:41:20;17.0;96.0
22676;DHT22;12521;43.310;21.876;2023-05-17T17:45:56;17.0;96.0
22676;DHT22;12521;43.310;21.876;2023-05-17T17:50:33;17.0;96.0
22676;DHT22;12521;43.310;21.876;2023-05-17T17:55:09;16.9;96.0
22676;DHT22;12521;43.310;21.876;2023-05-17T17:59:45;16.9;96.0
22676;DHT22;12521;43.310;21.876;2023-05-17T18:04:22;16.8;96.0
22676;DHT22;12521;43.310;21.876;2023-05-17T18:08:58;16.8;96.0
22676;DHT22;12521;43.310;21.876;2023-05-17T18:13:35;16.7;96.0
22676;DHT22;12521;43.310;21.876;2023-05-17T18:18:12;16.7;96.0
22676;DHT22;12521;43.310;21.876;2023-05-17T18:22:48;16.7;96.0
22676;DHT22;12521;43.310;21.876;2023-05-17T18:27:25;16.7;96.0
22676;DHT22;12521;43.310;21.876;2023-05-17T18:32:01;16.7;96.0
22676;DHT22;12521;43.310;21.876;2023-05-17T18:36:40;16.7;96.0
22676;DHT22;12521;43.310;21.876;2023-05-17T18:41:17;16.8;96.0
22676;DHT22;12521;43.310;21.876;2023-05-17T18:45:54;16.8;96.0
22676;DHT22;12521;43.310;21.876;2023-05-17T18:50:30;16.8;96.0
22676;DHT22;12521;43.310;21.876;2023-05-17T18:55:08;16.8;96.0
22676;DHT22;12521;43.310;21.876;2023-05-17T18:59:45;16.8;96.0
22676;DHT22;12521;43.310;21.876;2023-05-17T19:04:21;16.8;96.0
22676;DHT22;12521;43.310;21.876;2023-05-17T19:08:58;16.8;96.0
22676;DHT22;12521;43.310;21.876;2023-05-17T19:13:34;16.7;96.0
22676;DHT22;12521;43.310;21.876;2023-05-17T19:18:11;16.7;96.0
22676;DHT22;12521;43.310;21.876;2023-05-17T19:22:47;16.6;96.0
22676;DHT22;12521;43.310;21.876;2023-05-17T19:27:24;16.6;96.0
22676;DHT22;12521;43.310;21.876;2023-05-17T19:32:00;16.6;96.0
22676;DHT22;12521;43.310;21.876;2023-05-17T19:36:37;16.6;96.0
22676;DHT22;12521;43.310;21.876;2023-05-17T19:41:14;16.6;96.0
22676;DHT22;12521;43.310;21.876;2023-05-17T19:45:51;16.6;96.0
22676;DHT22;12521;43.310;21.876;2023-05-17T19:50:28;16.6;96.0
22676;DHT22;12521;43.310;21.876;2023-05-17T19:55:05;16.5;96.0
22676;DHT22;12521;43.310;21.876;2023-05-17T19:59:43;16.5;96.0
22676;DHT22;12521;43.310;21.876;2023-05-17T20:04:19;16.5;96.0
22676;DHT22;12521;43.310;21.876;2023-05-17T20:08:56;16.5;96.0
22676;DHT22;12521;43.310;21.876;2023-05-17T20:13:33;16.5;96.0
22676;DHT22;12521;43.310;21.876;2023-05-17T20:18:10;16.5;96.0
22676;DHT22;12521;43.310;21.876;2023-05-17T20:22:47;16.4;96.0
22676;DHT22;12521;43.310;21.876;2023-05-17T20:27:23;16.4;96.0
22676;DHT22;12521;43.310;21.876;2023-05-17T20:31:59;16.4;96.0
22676;DHT22;12521;43.310;21.876;2023-05-17T20:36:36;16.4;96.0
22676;DHT22;12521;43.310;21.876;2023-05-17T20:41:13;16.4;96.0
22676;DHT22;12521;43.310;21.876;2023-05-17T20:45:49;16.4;96.0
22676;DHT22;12521;43.310;21.876;2023-05-17T20:50:26;16.4;96.0
22676;DHT22;12521;43.310;21.876;2023-05-17T20:55:03;16.4;96.0
22676;DHT22;12521;43.310;21.876;2023-05-17T20:59:43;16.4;96.0
22676;DHT22;12521;43.310;21.876;2023-05-17T21:04:20;16.2;96.0
22676;DHT22;12521;43.310;21.876;2023-05-17T21:08:57;16.2;96.0
22676;DHT22;12521;43.310;21.876;2023-05-17T21:13:34;16.0;96.0
22676;DHT22;12521;43.310;21.876;2023-05-17T21:18:12;16.0;96.0
22676;DHT22;12521;43.310;21.876;2023-05-17T21:22:48;15.6;96.0
22676;DHT22;12521;43.310;21.876;2023-05-17T21:27:25;15.6;96.0
22676;DHT22;12521;43.310;21.876;2023-05-17T21:32:02;15.3;96.0
22676;DHT22;12521;43.310;21.876;2023-05-17T21:36:41;15.3;96.0
22676;DHT22;12521;43.310;21.876;2023-05-17T21:41:17;15.3;96.0
22676;DHT22;12521;43.310;21.876;2023-05-17T21:45:54;15.2;96.0
22676;DHT22;12521;43.310;21.876;2023-05-17T21:50:30;15.2;96.0
22676;DHT22;12521;43.310;21.876;2023-05-17T21:55:08;15.0;96.0
22676;DHT22;12521;43.310;21.876;2023-05-17T21:59:46;15.0;96.0
22676;DHT22;12521;43.310;21.876;2023-05-17T22:04:23;14.8;96.0
22676;DHT22;12521;43.310;21.876;2023-05-17T22:08:59;14.8;96.0
22676;DHT22;12521;43.310;21.876;2023-05-17T22:13:36;14.7;96.0
22676;DHT22;12521;43.310;21.876;2023-05-17T22:18:14;14.7;96.0
22676;DHT22;12521;43.310;21.876;2023-05-17T22:22:50;14.6;96.0
22676;DHT22;12521;43.310;21.876;2023-05-17T22:27:27;14.6;96.0
22676;DHT22;12521;43.310;21.876;2023-05-17T22:32:04;14.6;96.0
22676;DHT22;12521;43.310;21.876;2023-05-17T22:36:42;14.6;96.0
22676;DHT22;12521;43.310;21.876;2023-05-17T22:41:19;14.6;96.0
22676;DHT22;12521;43.310;21.876;2023-05-17T22:45:56;14.8;96.0
22676;DHT22;12521;43.310;21.876;2023-05-17T22:50:32;14.8;96.0
22676;DHT22;12521;43.310;21.876;2023-05-17T22:55:09;14.9;96.0
22676;DHT22;12521;43.310;21.876;2023-05-17T22:59:45;14.9;96.0
22676;DHT22;12521;43.310;21.876;2023-05-17T23:04:22;15.0;96.0
22676;DHT22;12521;43.310;21.876;2023-05-17T23:08:58;15.0;96.0
22676;DHT22;12521;43.310;21.876;2023-05-17T23:13:34;15.0;96.0
22676;DHT22;12521;43.310;21.876;2023-05-17T23:18:10;15.0;96.0
22676;DHT22;12521;43.310;21.876;2023-05-17T23:22:46;15.0;96.0
22676;DHT22;12521;43.310;21.876;2023-05-17T23:27:23;15.0;96.0
22676;DHT22;12521;43.310;21.876;2023-05-17T23:31:59;15.0;96.0
22676;DHT22;12521;43.310;21.876;2023-05-17T23:36:35;15.0;96.0
22676;DHT22;12521;43.310;21.876;2023-05-17T23:41:12;15.0;96.0
22676;DHT22;12521;43.310;21.876;2023-05-17T23:45:48;15.0;96.0
22676;DHT22;12521;43.310;21.876;2023-05-17T23:50:25;15.0;96.0
22676;DHT22;12521;43.310;21.876;2023-05-17T23:55:01;14.9;96.0
22676;DHT22;12521;43.310;21.876;2023-05-17T23:59:41;14.9;96.0
